sensor_id;sensor_type;location;lat;lon;timestamp;P1;durP1;ratioP1;P2;durP2;ratioP2
39540;SDS011;25219;52.244;21.006;2023-09-19T00:01:34;14.52;;;9.18;;
39540;SDS011;25219;52.244;21.006;2023-09-19T00:03:59;15.10;;;10.27;;
39540;SDS011;25219;52.244;21.006;2023-09-19T00:06:27;15.40;;;9.23;;
39540;SDS011;25219;52.244;21.006;2023-09-19T00:08:53;13.25;;;9.50;;
39540;SDS011;25219;52.244;21.006;2023-09-19T00:11:19;16.83;;;9.00;;
39540;SDS011;25219;52.244;21.006;2023-09-19T00:13:47;12.20;;;9.00;;
39540;SDS011;25219;52.244;21.006;2023-09-19T00:16:14;15.15;;;9.95;;
39540;SDS011;25219;52.244;21.006;2023-09-19T00:18:40;12.95;;;9.50;;
39540;SDS011;25219;52.244;21.006;2023-09-19T00:21:05;14.60;;;9.50;;
39540;SDS011;25219;52.244;21.006;2023-09-19T00:23:30;14.20;;;9.10;;
39540;SDS011;25219;52.244;21.006;2023-09-19T00:25:59;12.10;;;9.32;;
39540;SDS011;25219;52.244;21.006;2023-09-19T00:28:25;17.10;;;9.88;;
39540;SDS011;25219;52.244;21.006;2023-09-19T00:30:51;13.90;;;9.80;;
39540;SDS011;25219;52.244;21.006;2023-09-19T00:33:16;11.40;;;8.90;;
39540;SDS011;25219;52.244;21.006;2023-09-19T00:35:48;14.87;;;9.87;;
39540;SDS011;25219;52.244;21.006;2023-09-19T00:38:13;15.35;;;10.13;;
39540;SDS011;25219;52.244;21.006;2023-09-19T00:40:43;19.63;;;9.73;;
39540;SDS011;25219;52.244;21.006;2023-09-19T00:43:08;19.92;;;9.52;;
39540;SDS011;25219;52.244;21.006;2023-09-19T00:45:33;14.80;;;8.67;;
39540;SDS011;25219;52.244;21.006;2023-09-19T00:48:01;13.10;;;8.82;;
39540;SDS011;25219;52.244;21.006;2023-09-19T00:50:28;13.90;;;9.20;;
39540;SDS011;25219;52.244;21.006;2023-09-19T00:52:54;11.83;;;9.00;;
39540;SDS011;25219;52.244;21.006;2023-09-19T00:55:22;18.08;;;9.32;;
39540;SDS011;25219;52.244;21.006;2023-09-19T00:57:48;10.65;;;8.68;;
39540;SDS011;25219;52.244;21.006;2023-09-19T01:00:16;13.20;;;10.00;;
39540;SDS011;25219;52.244;21.006;2023-09-19T01:02:44;13.57;;;9.60;;
39540;SDS011;25219;52.244;21.006;2023-09-19T01:05:10;14.95;;;10.00;;
39540;SDS011;25219;52.244;21.006;2023-09-19T01:07:35;15.35;;;9.20;;
39540;SDS011;25219;52.244;21.006;2023-09-19T01:10:04;17.85;;;9.65;;
39540;SDS011;25219;52.244;21.006;2023-09-19T01:15:15;13.68;;;9.15;;
39540;SDS011;25219;52.244;21.006;2023-09-19T01:17:48;13.88;;;9.38;;
39540;SDS011;25219;52.244;21.006;2023-09-19T01:20:22;11.18;;;9.20;;
39540;SDS011;25219;52.244;21.006;2023-09-19T01:30:44;14.80;;;9.68;;
39540;SDS011;25219;52.244;21.006;2023-09-19T01:33:11;15.73;;;9.32;;
39540;SDS011;25219;52.244;21.006;2023-09-19T01:35:39;14.60;;;9.63;;
39540;SDS011;25219;52.244;21.006;2023-09-19T01:38:05;15.98;;;9.80;;
39540;SDS011;25219;52.244;21.006;2023-09-19T01:40:31;19.83;;;9.80;;
39540;SDS011;25219;52.244;21.006;2023-09-19T01:45:44;15.18;;;10.07;;
39540;SDS011;25219;52.244;21.006;2023-09-19T01:48:16;12.30;;;8.85;;
39540;SDS011;25219;52.244;21.006;2023-09-19T01:50:50;19.25;;;9.80;;
39540;SDS011;25219;52.244;21.006;2023-09-19T01:53:27;14.15;;;9.63;;
39540;SDS011;25219;52.244;21.006;2023-09-19T01:55:55;15.98;;;9.70;;
39540;SDS011;25219;52.244;21.006;2023-09-19T02:00:59;18.45;;;10.63;;
39540;SDS011;25219;52.244;21.006;2023-09-19T02:03:25;14.40;;;9.55;;
39540;SDS011;25219;52.244;21.006;2023-09-19T02:05:52;13.48;;;9.27;;
39540;SDS011;25219;52.244;21.006;2023-09-19T02:08:18;11.57;;;9.75;;
39540;SDS011;25219;52.244;21.006;2023-09-19T02:10:44;13.25;;;9.60;;
39540;SDS011;25219;52.244;21.006;2023-09-19T02:13:13;15.82;;;10.18;;
39540;SDS011;25219;52.244;21.006;2023-09-19T02:15:39;12.75;;;9.07;;
39540;SDS011;25219;52.244;21.006;2023-09-19T02:18:04;14.63;;;10.07;;
39540;SDS011;25219;52.244;21.006;2023-09-19T02:20:30;17.27;;;9.70;;
39540;SDS011;25219;52.244;21.006;2023-09-19T02:22:57;18.73;;;10.05;;
39540;SDS011;25219;52.244;21.006;2023-09-19T02:25:23;12.10;;;9.20;;
39540;SDS011;25219;52.244;21.006;2023-09-19T02:27:48;13.48;;;8.88;;
39540;SDS011;25219;52.244;21.006;2023-09-19T02:30:13;15.77;;;8.93;;
39540;SDS011;25219;52.244;21.006;2023-09-19T02:32:40;11.52;;;9.02;;
39540;SDS011;25219;52.244;21.006;2023-09-19T02:35:06;15.60;;;9.65;;
39540;SDS011;25219;52.244;21.006;2023-09-19T02:37:32;14.45;;;9.30;;
39540;SDS011;25219;52.244;21.006;2023-09-19T02:39:58;18.42;;;9.38;;
39540;SDS011;25219;52.244;21.006;2023-09-19T02:42:23;12.57;;;9.57;;
39540;SDS011;25219;52.244;21.006;2023-09-19T02:44:48;13.60;;;9.70;;
39540;SDS011;25219;52.244;21.006;2023-09-19T02:47:13;12.00;;;9.33;;
39540;SDS011;25219;52.244;21.006;2023-09-19T02:49:40;15.38;;;9.73;;
39540;SDS011;25219;52.244;21.006;2023-09-19T02:52:05;14.35;;;10.32;;
39540;SDS011;25219;52.244;21.006;2023-09-19T02:54:32;15.18;;;9.77;;
39540;SDS011;25219;52.244;21.006;2023-09-19T02:56:57;13.17;;;9.60;;
39540;SDS011;25219;52.244;21.006;2023-09-19T02:59:23;14.68;;;10.10;;
39540;SDS011;25219;52.244;21.006;2023-09-19T03:01:49;13.65;;;9.73;;
39540;SDS011;25219;52.244;21.006;2023-09-19T03:04:15;17.30;;;11.27;;
39540;SDS011;25219;52.244;21.006;2023-09-19T03:06:44;15.82;;;11.00;;
39540;SDS011;25219;52.244;21.006;2023-09-19T03:09:09;14.40;;;9.13;;
39540;SDS011;25219;52.244;21.006;2023-09-19T03:11:36;13.48;;;9.05;;
39540;SDS011;25219;52.244;21.006;2023-09-19T03:14:01;13.40;;;9.80;;
39540;SDS011;25219;52.244;21.006;2023-09-19T03:16:27;14.35;;;9.95;;
39540;SDS011;25219;52.244;21.006;2023-09-19T03:18:52;11.67;;;9.60;;
39540;SDS011;25219;52.244;21.006;2023-09-19T03:21:17;12.50;;;8.95;;
39540;SDS011;25219;52.244;21.006;2023-09-19T03:23:44;18.02;;;9.88;;
39540;SDS011;25219;52.244;21.006;2023-09-19T03:26:12;16.45;;;11.38;;
39540;SDS011;25219;52.244;21.006;2023-09-19T03:28:38;15.07;;;9.90;;
39540;SDS011;25219;52.244;21.006;2023-09-19T03:31:04;13.27;;;9.95;;
39540;SDS011;25219;52.244;21.006;2023-09-19T03:33:29;15.23;;;9.95;;
39540;SDS011;25219;52.244;21.006;2023-09-19T03:35:57;20.17;;;10.90;;
39540;SDS011;25219;52.244;21.006;2023-09-19T03:38:24;16.92;;;10.00;;
39540;SDS011;25219;52.244;21.006;2023-09-19T03:40:49;16.53;;;10.07;;
39540;SDS011;25219;52.244;21.006;2023-09-19T03:43:14;15.10;;;10.67;;
39540;SDS011;25219;52.244;21.006;2023-09-19T03:45:39;16.10;;;10.03;;
39540;SDS011;25219;52.244;21.006;2023-09-19T03:48:11;14.52;;;10.07;;
39540;SDS011;25219;52.244;21.006;2023-09-19T03:50:36;14.10;;;9.75;;
39540;SDS011;25219;52.244;21.006;2023-09-19T03:53:01;16.93;;;9.90;;
39540;SDS011;25219;52.244;21.006;2023-09-19T03:55:27;19.33;;;9.50;;
39540;SDS011;25219;52.244;21.006;2023-09-19T03:57:52;17.85;;;9.82;;
39540;SDS011;25219;52.244;21.006;2023-09-19T04:00:17;15.10;;;9.17;;
39540;SDS011;25219;52.244;21.006;2023-09-19T04:02:46;16.10;;;9.77;;
39540;SDS011;25219;52.244;21.006;2023-09-19T04:05:11;14.23;;;9.90;;
39540;SDS011;25219;52.244;21.006;2023-09-19T04:07:36;17.23;;;10.15;;
39540;SDS011;25219;52.244;21.006;2023-09-19T04:10:02;13.57;;;9.00;;
39540;SDS011;25219;52.244;21.006;2023-09-19T04:12:27;13.95;;;9.68;;
39540;SDS011;25219;52.244;21.006;2023-09-19T04:14:53;14.93;;;9.77;;
39540;SDS011;25219;52.244;21.006;2023-09-19T04:17:18;12.63;;;9.65;;
39540;SDS011;25219;52.244;21.006;2023-09-19T04:19:43;14.25;;;9.23;;
39540;SDS011;25219;52.244;21.006;2023-09-19T04:22:10;16.98;;;9.25;;
39540;SDS011;25219;52.244;21.006;2023-09-19T04:24:37;15.38;;;9.38;;
39540;SDS011;25219;52.244;21.006;2023-09-19T04:27:03;12.07;;;10.35;;
39540;SDS011;25219;52.244;21.006;2023-09-19T04:29:28;14.18;;;9.57;;
39540;SDS011;25219;52.244;21.006;2023-09-19T04:31:54;19.02;;;10.52;;
39540;SDS011;25219;52.244;21.006;2023-09-19T04:34:19;18.87;;;10.07;;
39540;SDS011;25219;52.244;21.006;2023-09-19T04:36:44;15.20;;;9.47;;
39540;SDS011;25219;52.244;21.006;2023-09-19T04:39:10;17.42;;;9.57;;
39540;SDS011;25219;52.244;21.006;2023-09-19T04:41:38;15.52;;;9.45;;
39540;SDS011;25219;52.244;21.006;2023-09-19T04:44:06;13.38;;;9.32;;
39540;SDS011;25219;52.244;21.006;2023-09-19T04:46:32;16.33;;;9.68;;
39540;SDS011;25219;52.244;21.006;2023-09-19T04:48:57;15.23;;;10.03;;
39540;SDS011;25219;52.244;21.006;2023-09-19T04:51:22;14.37;;;10.07;;
39540;SDS011;25219;52.244;21.006;2023-09-19T04:53:48;15.48;;;9.93;;
39540;SDS011;25219;52.244;21.006;2023-09-19T04:56:14;17.20;;;10.27;;
39540;SDS011;25219;52.244;21.006;2023-09-19T04:58:40;16.65;;;10.43;;
39540;SDS011;25219;52.244;21.006;2023-09-19T05:01:05;17.52;;;9.63;;
39540;SDS011;25219;52.244;21.006;2023-09-19T05:03:30;13.77;;;9.75;;
39540;SDS011;25219;52.244;21.006;2023-09-19T05:05:56;15.45;;;9.68;;
39540;SDS011;25219;52.244;21.006;2023-09-19T05:08:21;15.60;;;9.47;;
39540;SDS011;25219;52.244;21.006;2023-09-19T05:10:47;15.77;;;9.95;;
39540;SDS011;25219;52.244;21.006;2023-09-19T05:13:12;16.30;;;9.60;;
39540;SDS011;25219;52.244;21.006;2023-09-19T05:15:37;14.93;;;9.93;;
39540;SDS011;25219;52.244;21.006;2023-09-19T05:18:02;14.27;;;9.73;;
39540;SDS011;25219;52.244;21.006;2023-09-19T05:20:28;13.98;;;9.60;;
39540;SDS011;25219;52.244;21.006;2023-09-19T05:25:25;16.83;;;9.13;;
39540;SDS011;25219;52.244;21.006;2023-09-19T05:27:54;14.73;;;8.50;;
39540;SDS011;25219;52.244;21.006;2023-09-19T05:30:19;16.50;;;9.63;;
39540;SDS011;25219;52.244;21.006;2023-09-19T05:32:45;15.85;;;9.30;;
39540;SDS011;25219;52.244;21.006;2023-09-19T05:35:10;16.10;;;8.87;;
39540;SDS011;25219;52.244;21.006;2023-09-19T05:37:38;13.43;;;9.40;;
39540;SDS011;25219;52.244;21.006;2023-09-19T05:40:03;15.33;;;8.90;;
39540;SDS011;25219;52.244;21.006;2023-09-19T05:42:32;13.18;;;8.90;;
39540;SDS011;25219;52.244;21.006;2023-09-19T05:44:57;14.10;;;8.87;;
39540;SDS011;25219;52.244;21.006;2023-09-19T05:47:23;19.73;;;9.18;;
39540;SDS011;25219;52.244;21.006;2023-09-19T05:49:50;13.77;;;8.65;;
39540;SDS011;25219;52.244;21.006;2023-09-19T05:52:15;13.50;;;9.05;;
39540;SDS011;25219;52.244;21.006;2023-09-19T05:54:42;13.25;;;9.25;;
39540;SDS011;25219;52.244;21.006;2023-09-19T05:57:07;15.37;;;9.63;;
39540;SDS011;25219;52.244;21.006;2023-09-19T05:59:33;12.73;;;8.63;;
39540;SDS011;25219;52.244;21.006;2023-09-19T06:01:59;15.85;;;8.45;;
39540;SDS011;25219;52.244;21.006;2023-09-19T06:04:24;12.60;;;8.32;;
39540;SDS011;25219;52.244;21.006;2023-09-19T06:06:50;16.92;;;9.18;;
39540;SDS011;25219;52.244;21.006;2023-09-19T06:09:16;16.08;;;8.95;;
39540;SDS011;25219;52.244;21.006;2023-09-19T06:11:41;17.10;;;8.87;;
39540;SDS011;25219;52.244;21.006;2023-09-19T06:14:07;11.75;;;8.55;;
39540;SDS011;25219;52.244;21.006;2023-09-19T06:16:32;18.30;;;8.90;;
39540;SDS011;25219;52.244;21.006;2023-09-19T06:18:57;18.23;;;8.30;;
39540;SDS011;25219;52.244;21.006;2023-09-19T06:21:23;17.08;;;8.68;;
39540;SDS011;25219;52.244;21.006;2023-09-19T06:23:49;16.63;;;9.02;;
39540;SDS011;25219;52.244;21.006;2023-09-19T06:26:14;12.80;;;9.17;;
39540;SDS011;25219;52.244;21.006;2023-09-19T06:28:39;14.10;;;9.03;;
39540;SDS011;25219;52.244;21.006;2023-09-19T06:31:04;12.77;;;9.60;;
39540;SDS011;25219;52.244;21.006;2023-09-19T06:33:34;12.77;;;8.32;;
39540;SDS011;25219;52.244;21.006;2023-09-19T06:35:59;13.80;;;9.40;;
39540;SDS011;25219;52.244;21.006;2023-09-19T06:38:25;12.88;;;9.00;;
39540;SDS011;25219;52.244;21.006;2023-09-19T06:40:50;15.25;;;8.65;;
39540;SDS011;25219;52.244;21.006;2023-09-19T06:43:15;15.87;;;9.33;;
39540;SDS011;25219;52.244;21.006;2023-09-19T06:45:40;16.23;;;10.13;;
39540;SDS011;25219;52.244;21.006;2023-09-19T06:48:06;17.35;;;9.27;;
39540;SDS011;25219;52.244;21.006;2023-09-19T06:50:32;13.60;;;8.77;;
39540;SDS011;25219;52.244;21.006;2023-09-19T06:53:00;19.13;;;9.07;;
39540;SDS011;25219;52.244;21.006;2023-09-19T06:55:27;13.40;;;9.18;;
39540;SDS011;25219;52.244;21.006;2023-09-19T06:57:56;12.25;;;8.55;;
39540;SDS011;25219;52.244;21.006;2023-09-19T07:00:21;16.33;;;9.82;;
39540;SDS011;25219;52.244;21.006;2023-09-19T07:02:57;15.38;;;8.65;;
39540;SDS011;25219;52.244;21.006;2023-09-19T07:05:23;15.02;;;9.43;;
39540;SDS011;25219;52.244;21.006;2023-09-19T07:07:48;11.63;;;8.90;;
39540;SDS011;25219;52.244;21.006;2023-09-19T07:10:14;13.77;;;9.32;;
39540;SDS011;25219;52.244;21.006;2023-09-19T07:12:39;19.70;;;9.90;;
39540;SDS011;25219;52.244;21.006;2023-09-19T07:15:06;13.30;;;8.00;;
39540;SDS011;25219;52.244;21.006;2023-09-19T07:17:31;15.55;;;9.23;;
39540;SDS011;25219;52.244;21.006;2023-09-19T07:19:58;16.00;;;9.82;;
39540;SDS011;25219;52.244;21.006;2023-09-19T07:22:23;14.30;;;9.18;;
39540;SDS011;25219;52.244;21.006;2023-09-19T07:24:48;18.47;;;9.67;;
39540;SDS011;25219;52.244;21.006;2023-09-19T07:27:14;16.27;;;9.43;;
39540;SDS011;25219;52.244;21.006;2023-09-19T07:29:39;14.27;;;9.80;;
39540;SDS011;25219;52.244;21.006;2023-09-19T07:32:04;16.93;;;10.70;;
39540;SDS011;25219;52.244;21.006;2023-09-19T07:34:31;18.75;;;10.00;;
39540;SDS011;25219;52.244;21.006;2023-09-19T07:36:56;16.10;;;9.80;;
39540;SDS011;25219;52.244;21.006;2023-09-19T07:39:21;15.85;;;10.52;;
39540;SDS011;25219;52.244;21.006;2023-09-19T07:41:46;15.67;;;10.50;;
39540;SDS011;25219;52.244;21.006;2023-09-19T07:44:13;15.80;;;10.20;;
39540;SDS011;25219;52.244;21.006;2023-09-19T07:46:39;15.80;;;10.45;;
39540;SDS011;25219;52.244;21.006;2023-09-19T07:49:04;17.00;;;10.10;;
39540;SDS011;25219;52.244;21.006;2023-09-19T07:51:30;16.40;;;10.55;;
39540;SDS011;25219;52.244;21.006;2023-09-19T07:53:55;15.53;;;10.33;;
39540;SDS011;25219;52.244;21.006;2023-09-19T07:56:20;26.15;;;11.63;;
39540;SDS011;25219;52.244;21.006;2023-09-19T07:58:46;16.58;;;10.23;;
39540;SDS011;25219;52.244;21.006;2023-09-19T08:01:11;14.25;;;10.98;;
39540;SDS011;25219;52.244;21.006;2023-09-19T08:03:37;18.33;;;10.90;;
39540;SDS011;25219;52.244;21.006;2023-09-19T08:06:05;15.25;;;10.73;;
39540;SDS011;25219;52.244;21.006;2023-09-19T08:08:31;17.58;;;11.10;;
39540;SDS011;25219;52.244;21.006;2023-09-19T08:10:56;17.35;;;10.32;;
39540;SDS011;25219;52.244;21.006;2023-09-19T08:13:22;12.95;;;9.95;;
39540;SDS011;25219;52.244;21.006;2023-09-19T08:15:48;16.02;;;10.32;;
39540;SDS011;25219;52.244;21.006;2023-09-19T08:18:13;13.97;;;10.53;;
39540;SDS011;25219;52.244;21.006;2023-09-19T08:20:39;17.38;;;10.43;;
39540;SDS011;25219;52.244;21.006;2023-09-19T08:23:07;17.05;;;10.95;;
39540;SDS011;25219;52.244;21.006;2023-09-19T08:25:33;17.27;;;11.73;;
39540;SDS011;25219;52.244;21.006;2023-09-19T08:27:58;13.27;;;10.20;;
39540;SDS011;25219;52.244;21.006;2023-09-19T08:30:26;19.67;;;12.13;;
39540;SDS011;25219;52.244;21.006;2023-09-19T08:32:59;18.85;;;11.18;;
39540;SDS011;25219;52.244;21.006;2023-09-19T08:35:24;22.80;;;10.60;;
39540;SDS011;25219;52.244;21.006;2023-09-19T08:37:49;16.50;;;10.93;;
39540;SDS011;25219;52.244;21.006;2023-09-19T08:40:15;18.05;;;10.82;;
39540;SDS011;25219;52.244;21.006;2023-09-19T08:43:14;14.60;;;10.07;;
39540;SDS011;25219;52.244;21.006;2023-09-19T08:45:33;14.32;;;10.23;;
39540;SDS011;25219;52.244;21.006;2023-09-19T08:50:41;14.45;;;9.27;;
39540;SDS011;25219;52.244;21.006;2023-09-19T08:53:10;13.02;;;9.23;;
39540;SDS011;25219;52.244;21.006;2023-09-19T08:55:37;12.40;;;8.93;;
39540;SDS011;25219;52.244;21.006;2023-09-19T08:58:06;15.13;;;9.30;;
39540;SDS011;25219;52.244;21.006;2023-09-19T09:00:33;14.23;;;9.38;;
39540;SDS011;25219;52.244;21.006;2023-09-19T09:02:59;15.23;;;8.90;;
39540;SDS011;25219;52.244;21.006;2023-09-19T09:05:26;14.98;;;9.23;;
39540;SDS011;25219;52.244;21.006;2023-09-19T09:07:52;16.13;;;9.38;;
39540;SDS011;25219;52.244;21.006;2023-09-19T09:10:20;15.38;;;9.10;;
39540;SDS011;25219;52.244;21.006;2023-09-19T09:12:48;13.40;;;8.65;;
39540;SDS011;25219;52.244;21.006;2023-09-19T09:15:13;14.88;;;7.50;;
39540;SDS011;25219;52.244;21.006;2023-09-19T09:17:41;10.48;;;7.68;;
39540;SDS011;25219;52.244;21.006;2023-09-19T09:20:08;9.77;;;7.30;;
39540;SDS011;25219;52.244;21.006;2023-09-19T09:22:34;10.00;;;7.28;;
39540;SDS011;25219;52.244;21.006;2023-09-19T09:25:01;7.95;;;6.38;;
39540;SDS011;25219;52.244;21.006;2023-09-19T09:27:29;10.60;;;7.03;;
39540;SDS011;25219;52.244;21.006;2023-09-19T09:29:54;11.47;;;6.67;;
39540;SDS011;25219;52.244;21.006;2023-09-19T09:32:28;10.10;;;5.85;;
39540;SDS011;25219;52.244;21.006;2023-09-19T09:34:58;7.50;;;5.40;;
39540;SDS011;25219;52.244;21.006;2023-09-19T09:37:24;13.68;;;6.47;;
39540;SDS011;25219;52.244;21.006;2023-09-19T09:40:02;13.57;;;7.10;;
39540;SDS011;25219;52.244;21.006;2023-09-19T09:42:39;19.77;;;8.13;;
39540;SDS011;25219;52.244;21.006;2023-09-19T09:45:20;20.05;;;9.02;;
39540;SDS011;25219;52.244;21.006;2023-09-19T09:48:02;14.48;;;7.95;;
39540;SDS011;25219;52.244;21.006;2023-09-19T09:50:35;23.27;;;8.93;;
39540;SDS011;25219;52.244;21.006;2023-09-19T09:53:21;23.50;;;10.73;;
39540;SDS011;25219;52.244;21.006;2023-09-19T09:55:59;25.40;;;11.45;;
39540;SDS011;25219;52.244;21.006;2023-09-19T09:58:25;20.95;;;9.50;;
39540;SDS011;25219;52.244;21.006;2023-09-19T10:00:54;16.65;;;9.68;;
39540;SDS011;25219;52.244;21.006;2023-09-19T10:03:30;22.85;;;10.60;;
39540;SDS011;25219;52.244;21.006;2023-09-19T10:05:56;22.13;;;9.60;;
39540;SDS011;25219;52.244;21.006;2023-09-19T10:08:23;17.73;;;9.80;;
39540;SDS011;25219;52.244;21.006;2023-09-19T10:10:48;20.80;;;9.77;;
39540;SDS011;25219;52.244;21.006;2023-09-19T10:13:28;20.35;;;9.32;;
39540;SDS011;25219;52.244;21.006;2023-09-19T10:15:55;12.50;;;8.55;;
39540;SDS011;25219;52.244;21.006;2023-09-19T10:18:22;13.68;;;9.07;;
39540;SDS011;25219;52.244;21.006;2023-09-19T10:20:48;14.18;;;9.07;;
39540;SDS011;25219;52.244;21.006;2023-09-19T10:23:19;17.95;;;8.82;;
39540;SDS011;25219;52.244;21.006;2023-09-19T10:25:48;17.58;;;8.70;;
39540;SDS011;25219;52.244;21.006;2023-09-19T10:28:14;16.35;;;8.52;;
39540;SDS011;25219;52.244;21.006;2023-09-19T10:30:43;18.50;;;7.70;;
39540;SDS011;25219;52.244;21.006;2023-09-19T10:33:10;11.80;;;6.68;;
39540;SDS011;25219;52.244;21.006;2023-09-19T10:35:37;12.32;;;7.55;;
39540;SDS011;25219;52.244;21.006;2023-09-19T10:38:05;11.23;;;7.22;;
39540;SDS011;25219;52.244;21.006;2023-09-19T10:40:32;12.73;;;7.22;;
39540;SDS011;25219;52.244;21.006;2023-09-19T10:43:01;9.50;;;6.10;;
39540;SDS011;25219;52.244;21.006;2023-09-19T10:45:29;10.35;;;5.35;;
39540;SDS011;25219;52.244;21.006;2023-09-19T10:47:56;7.65;;;5.53;;
39540;SDS011;25219;52.244;21.006;2023-09-19T10:50:21;12.87;;;4.93;;
39540;SDS011;25219;52.244;21.006;2023-09-19T10:52:47;9.00;;;4.60;;
39540;SDS011;25219;52.244;21.006;2023-09-19T10:55:16;8.60;;;4.70;;
39540;SDS011;25219;52.244;21.006;2023-09-19T10:57:44;8.90;;;6.22;;
39540;SDS011;25219;52.244;21.006;2023-09-19T11:00:09;8.18;;;5.47;;
39540;SDS011;25219;52.244;21.006;2023-09-19T11:05:25;14.02;;;7.55;;
39540;SDS011;25219;52.244;21.006;2023-09-19T11:07:57;10.60;;;7.10;;
39540;SDS011;25219;52.244;21.006;2023-09-19T11:13:23;13.88;;;7.22;;
39540;SDS011;25219;52.244;21.006;2023-09-19T11:26:40;10.10;;;5.60;;
39540;SDS011;25219;52.244;21.006;2023-09-19T11:29:24;11.15;;;6.32;;
39540;SDS011;25219;52.244;21.006;2023-09-19T11:31:49;11.35;;;5.82;;
39540;SDS011;25219;52.244;21.006;2023-09-19T11:37:00;12.82;;;6.75;;
39540;SDS011;25219;52.244;21.006;2023-09-19T11:39:26;7.80;;;5.07;;
39540;SDS011;25219;52.244;21.006;2023-09-19T11:41:52;10.95;;;5.18;;
39540;SDS011;25219;52.244;21.006;2023-09-19T11:46:55;9.05;;;4.93;;
39540;SDS011;25219;52.244;21.006;2023-09-19T11:49:28;6.10;;;4.57;;
39540;SDS011;25219;52.244;21.006;2023-09-19T11:51:55;7.60;;;5.45;;
39540;SDS011;25219;52.244;21.006;2023-09-19T11:54:20;6.90;;;4.80;;
39540;SDS011;25219;52.244;21.006;2023-09-19T11:56:53;7.07;;;5.68;;
39540;SDS011;25219;52.244;21.006;2023-09-19T11:59:22;7.60;;;5.43;;
39540;SDS011;25219;52.244;21.006;2023-09-19T12:01:51;9.48;;;5.60;;
39540;SDS011;25219;52.244;21.006;2023-09-19T12:04:22;8.95;;;5.38;;
39540;SDS011;25219;52.244;21.006;2023-09-19T12:06:58;7.93;;;5.57;;
39540;SDS011;25219;52.244;21.006;2023-09-19T12:09:24;7.15;;;5.50;;
39540;SDS011;25219;52.244;21.006;2023-09-19T12:11:50;9.98;;;6.05;;
39540;SDS011;25219;52.244;21.006;2023-09-19T12:14:23;7.38;;;5.60;;
39540;SDS011;25219;52.244;21.006;2023-09-19T12:16:56;8.38;;;5.50;;
39540;SDS011;25219;52.244;21.006;2023-09-19T12:19:22;7.93;;;6.00;;
39540;SDS011;25219;52.244;21.006;2023-09-19T12:21:55;13.02;;;6.10;;
39540;SDS011;25219;52.244;21.006;2023-09-19T12:24:22;8.90;;;5.63;;
39540;SDS011;25219;52.244;21.006;2023-09-19T12:26:48;9.37;;;6.37;;
39540;SDS011;25219;52.244;21.006;2023-09-19T12:29:17;11.60;;;6.80;;
39540;SDS011;25219;52.244;21.006;2023-09-19T12:31:49;13.43;;;7.50;;
39540;SDS011;25219;52.244;21.006;2023-09-19T12:34:16;9.68;;;6.75;;
39540;SDS011;25219;52.244;21.006;2023-09-19T12:36:41;10.05;;;6.30;;
39540;SDS011;25219;52.244;21.006;2023-09-19T12:39:07;12.03;;;7.03;;
39540;SDS011;25219;52.244;21.006;2023-09-19T12:41:34;10.68;;;6.25;;
39540;SDS011;25219;52.244;21.006;2023-09-19T12:44:01;9.23;;;6.67;;
39540;SDS011;25219;52.244;21.006;2023-09-19T12:46:27;11.57;;;6.32;;
39540;SDS011;25219;52.244;21.006;2023-09-19T12:51:37;9.05;;;6.40;;
39540;SDS011;25219;52.244;21.006;2023-09-19T12:54:02;9.15;;;6.68;;
39540;SDS011;25219;52.244;21.006;2023-09-19T12:56:27;9.50;;;6.10;;
39540;SDS011;25219;52.244;21.006;2023-09-19T12:58:55;10.32;;;6.40;;
39540;SDS011;25219;52.244;21.006;2023-09-19T13:01:20;11.32;;;7.10;;
39540;SDS011;25219;52.244;21.006;2023-09-19T13:04:09;11.13;;;7.03;;
39540;SDS011;25219;52.244;21.006;2023-09-19T13:06:36;11.98;;;7.10;;
39540;SDS011;25219;52.244;21.006;2023-09-19T13:09:12;10.77;;;7.13;;
39540;SDS011;25219;52.244;21.006;2023-09-19T13:11:39;12.05;;;6.72;;
39540;SDS011;25219;52.244;21.006;2023-09-19T13:22:41;11.93;;;7.75;;
39540;SDS011;25219;52.244;21.006;2023-09-19T13:25:17;11.35;;;6.75;;
39540;SDS011;25219;52.244;21.006;2023-09-19T13:27:55;10.07;;;6.53;;
39540;SDS011;25219;52.244;21.006;2023-09-19T13:30:22;8.00;;;6.53;;
39540;SDS011;25219;52.244;21.006;2023-09-19T13:32:48;13.95;;;7.90;;
39540;SDS011;25219;52.244;21.006;2023-09-19T13:35:13;12.63;;;8.20;;
39540;SDS011;25219;52.244;21.006;2023-09-19T13:37:39;9.07;;;6.72;;
39540;SDS011;25219;52.244;21.006;2023-09-19T13:40:11;10.48;;;6.82;;
39540;SDS011;25219;52.244;21.006;2023-09-19T13:42:36;10.63;;;6.93;;
39540;SDS011;25219;52.244;21.006;2023-09-19T13:45:05;14.68;;;7.45;;
39540;SDS011;25219;52.244;21.006;2023-09-19T13:47:31;14.90;;;7.38;;
39540;SDS011;25219;52.244;21.006;2023-09-19T13:49:57;11.77;;;7.88;;
39540;SDS011;25219;52.244;21.006;2023-09-19T13:52:22;14.10;;;7.27;;
39540;SDS011;25219;52.244;21.006;2023-09-19T13:54:48;14.77;;;6.93;;
39540;SDS011;25219;52.244;21.006;2023-09-19T13:57:13;13.32;;;8.15;;
39540;SDS011;25219;52.244;21.006;2023-09-19T13:59:39;15.98;;;8.32;;
39540;SDS011;25219;52.244;21.006;2023-09-19T14:02:04;14.87;;;8.40;;
39540;SDS011;25219;52.244;21.006;2023-09-19T14:04:30;11.55;;;7.95;;
39540;SDS011;25219;52.244;21.006;2023-09-19T14:06:56;14.90;;;8.13;;
39540;SDS011;25219;52.244;21.006;2023-09-19T14:09:22;12.27;;;7.85;;
39540;SDS011;25219;52.244;21.006;2023-09-19T14:11:48;9.50;;;8.13;;
39540;SDS011;25219;52.244;21.006;2023-09-19T14:14:13;13.53;;;7.93;;
39540;SDS011;25219;52.244;21.006;2023-09-19T14:16:39;18.30;;;8.60;;
39540;SDS011;25219;52.244;21.006;2023-09-19T14:19:06;11.23;;;7.75;;
39540;SDS011;25219;52.244;21.006;2023-09-19T14:21:32;12.48;;;8.38;;
39540;SDS011;25219;52.244;21.006;2023-09-19T14:23:58;13.43;;;8.87;;
39540;SDS011;25219;52.244;21.006;2023-09-19T14:26:23;13.23;;;8.77;;
39540;SDS011;25219;52.244;21.006;2023-09-19T14:28:48;15.52;;;8.38;;
39540;SDS011;25219;52.244;21.006;2023-09-19T14:31:13;13.60;;;8.20;;
39540;SDS011;25219;52.244;21.006;2023-09-19T14:33:40;13.30;;;7.85;;
39540;SDS011;25219;52.244;21.006;2023-09-19T14:36:06;13.18;;;7.13;;
39540;SDS011;25219;52.244;21.006;2023-09-19T14:38:32;8.82;;;5.75;;
39540;SDS011;25219;52.244;21.006;2023-09-19T14:41:01;8.98;;;5.65;;
39540;SDS011;25219;52.244;21.006;2023-09-19T14:43:27;11.77;;;5.85;;
39540;SDS011;25219;52.244;21.006;2023-09-19T14:45:54;8.27;;;5.43;;
39540;SDS011;25219;52.244;21.006;2023-09-19T14:48:20;10.30;;;5.00;;
39540;SDS011;25219;52.244;21.006;2023-09-19T14:50:45;11.60;;;5.00;;
39540;SDS011;25219;52.244;21.006;2023-09-19T14:53:11;13.55;;;5.95;;
39540;SDS011;25219;52.244;21.006;2023-09-19T14:55:37;10.80;;;5.40;;
39540;SDS011;25219;52.244;21.006;2023-09-19T14:58:06;8.18;;;5.00;;
39540;SDS011;25219;52.244;21.006;2023-09-19T15:00:32;7.97;;;5.10;;
39540;SDS011;25219;52.244;21.006;2023-09-19T15:02:59;7.55;;;4.50;;
39540;SDS011;25219;52.244;21.006;2023-09-19T15:05:24;6.80;;;4.50;;
39540;SDS011;25219;52.244;21.006;2023-09-19T15:07:49;7.03;;;4.45;;
39540;SDS011;25219;52.244;21.006;2023-09-19T15:10:15;6.20;;;4.37;;
39540;SDS011;25219;52.244;21.006;2023-09-19T15:12:41;5.93;;;4.00;;
39540;SDS011;25219;52.244;21.006;2023-09-19T15:15:06;4.93;;;4.27;;